Andre Malraux — FLVA — position and weather

sailwx.info

Track history (hours):
 
Tides and Currents Weather Stations Pressure Air Temp Water Temp Dewpoint Dewpoint Depression Visibility Wind Speed Wind Dir Waves Ship Positions

Andre Malraux

Last reported at 2017-Sep-22 02:00 UTC. Time now 2017-Oct-17 23:58 UTC.
Position N 43°02' E 004°28'.
Warning: this ship's position is 25 days out of date.

Length 35 m; draft 3 m.

Type: Ship. MMSI: 228353900.

Date/timePositionNaut miles runAvg speedWind from/ knotsBaromVisibWave heightAir tempDewpointWater temp
2017-Sep-22 02:00N 43°02' E 004°28'144 4.5
2017-Sep-20 17:50N 41°06' E 002°35'4 9.5
2017-Sep-20 17:24N 41°02' E 002°32'4 9.5
2017-Sep-20 17:00N 40°59' E 002°29'5 9.9
2017-Sep-20 16:30N 40°55' E 002°25'510.1
2017-Sep-20 16:00N 40°51' E 002°22'510.4
2017-Sep-20 15:30N 40°47' E 002°18'510.5
2017-Sep-20 15:00N 40°42' E 002°14'1010.4
2017-Sep-20 14:00N 40°34' E 002°06'510.7
2017-Sep-20 13:30N 40°29' E 002°02'510.4
2017-Sep-20 13:00N 40°25' E 001°58'510.3
2017-Sep-20 12:30N 40°21' E 001°55'510.3
2017-Sep-20 12:00N 40°17' E 001°51'510.2
2017-Sep-20 11:30N 40°12' E 001°47'510.0
2017-Sep-20 10:57N 40°08' E 001°43'4 9.8
2017-Sep-20 10:30N 40°04' E 001°40'5 9.6
2017-Sep-20 10:00N 40°00' E 001°36'5 9.4
2017-Sep-20 09:29N 39°56' E 001°33'166 9.7
2017-Sep-19 16:20N 37°39' W 000°27'18 9.3
2017-Sep-19 14:27N 37°27' W 000°44'6 9.7
2017-Sep-19 13:52N 37°26' W 000°50'228 9.6
2017-Sep-18 14:11N 36°01' W 005°14'213.3
2017-Sep-18 14:00N 36°01' W 005°17'287 8.4
2017-Sep-17 03:51N 38°55' W 010°05'410.4
2017-Sep-17 03:30N 38°59' W 010°05'510.4
2017-Sep-17 03:00N 39°04' W 010°05'510.7
2017-Sep-17 02:30N 39°09' W 010°05'347 7.5
2017-Sep-15 04:28N 43°47' W 005°26'5 9.8
2017-Sep-15 03:56N 43°47' W 005°19'4 9.6
2017-Sep-15 03:29N 43°46' W 005°13'14 9.8
2017-Sep-15 02:05N 43°45' W 004°54'210.1
2017-Sep-15 01:55N 43°45' W 004°52'66 9.7
2017-Sep-14 19:08N 43°38' W 003°21'2 9.5
2017-Sep-14 18:53N 43°38' W 003°18'4 9.4
2017-Sep-14 18:30N 43°38' W 003°13'5 9.3
2017-Sep-14 18:00N 43°38' W 003°06'5 9.2
2017-Sep-14 17:30N 43°37' W 002°60'5 9.2
2017-Sep-14 16:58N 43°37' W 002°53'6 9.1
2017-Sep-14 16:19N 43°36' W 002°45'4 9.2
2017-Sep-14 15:50N 43°36' W 002°39'3 9.2
2017-Sep-14 15:30N 43°36' W 002°35'38 9.2
2017-Sep-14 11:23N 43°32' W 001°43'4 9.1
2017-Sep-14 11:00N 43°32' W 001°38'5 9.3
2017-Sep-14 10:25N 43°32' W 001°30'1 2.9
2017-Sep-14 10:00N 43°30' W 001°30'0 0.0
2017-Sep-14 09:30N 43°30' W 001°30'0 0.0
2017-Sep-14 09:00N 43°30' W 001°30'0 0.0
2017-Sep-14 08:30N 43°30' W 001°30'0 0.0
2017-Sep-14 08:00N 43°30' W 001°30'0 0.0
2017-Sep-14 07:30N 43°30' W 001°30'0 0.0
2017-Sep-14 07:00N 43°30' W 001°30'0 0.0
2017-Sep-14 06:30N 43°30' W 001°30'0 0.0
2017-Sep-14 06:00N 43°30' W 001°30'0 0.0
2017-Sep-14 05:30N 43°30' W 001°30'0 0.0
2017-Sep-14 05:00N 43°30' W 001°30'0 0.0
2017-Sep-14 04:29N 43°30' W 001°30'0 0.0
2017-Sep-14 03:52N 43°30' W 001°30'0 0.0
2017-Sep-14 01:48N 43°30' W 001°30'0 0.0
2017-Sep-14 01:24N 43°30' W 001°30'0 0.0
2017-Sep-14 00:10N 43°30' W 001°30'0 0.0
2017-Sep-13 23:59N 43°30' W 001°30'0 0.0
2017-Sep-13 23:30N 43°30' W 001°30'0 0.0
2017-Sep-13 22:59N 43°30' W 001°30'0 0.0
2017-Sep-13 22:30N 43°30' W 001°30'0 0.0
2017-Sep-13 22:00N 43°30' W 001°30'0 0.0
2017-Sep-13 21:29N 43°30' W 001°30'0 0.0
2017-Sep-13 21:00N 43°30' W 001°30'0 0.0
2017-Sep-13 20:30N 43°30' W 001°30'0 0.0
2017-Sep-13 20:00N 43°30' W 001°30'0 0.0
2017-Sep-13 19:30N 43°30' W 001°30'0 0.0
2017-Sep-13 19:00N 43°30' W 001°30'0 0.0
2017-Sep-13 18:30N 43°30' W 001°30'0 0.0
2017-Sep-13 17:59N 43°30' W 001°30'0 0.0
2017-Sep-13 17:30N 43°30' W 001°30'0 0.0
2017-Sep-13 17:00N 43°30' W 001°30'0 0.0
2017-Sep-13 16:25N 43°30' W 001°30'0 0.0
2017-Sep-13 13:45N 43°30' W 001°30'0 0.0
2017-Sep-13 13:29N 43°30' W 001°30'0 0.0
2017-Sep-13 13:00N 43°30' W 001°30'0 0.0
2017-Sep-13 12:30N 43°30' W 001°30'0 0.0
2017-Sep-13 11:59N 43°30' W 001°30'0 0.0
2017-Sep-13 11:28N 43°30' W 001°30'0 0.0
2017-Sep-13 11:00N 43°30' W 001°30'0 0.0
2017-Sep-13 10:30N 43°30' W 001°30'0 0.0
2017-Sep-13 10:00N 43°30' W 001°30'0 0.0
2017-Sep-13 09:30N 43°30' W 001°30'0 0.0
2017-Sep-13 09:00N 43°30' W 001°30'0 0.0
2017-Sep-13 08:30N 43°30' W 001°30'0 0.0
2017-Sep-13 08:00N 43°30' W 001°30'0 0.0
2017-Sep-13 07:30N 43°30' W 001°30'0 0.0
2017-Sep-13 07:00N 43°30' W 001°30'0 0.0
2017-Sep-13 06:30N 43°30' W 001°30'0 0.0
2017-Sep-13 06:00N 43°30' W 001°30'0 0.0
2017-Sep-13 05:30N 43°30' W 001°30'0 0.0
2017-Sep-13 05:00N 43°30' W 001°30'0 0.0
2017-Sep-13 04:30N 43°30' W 001°30'0 0.0
2017-Sep-13 04:00N 43°30' W 001°30'0 0.0
2017-Sep-13 03:30N 43°30' W 001°30'0 0.0
2017-Sep-13 02:55N 43°30' W 001°30'0 0.0
2017-Sep-13 00:46N 43°30' W 001°30'0 0.0
2017-Sep-13 00:25N 43°30' W 001°30'0 0.0
2017-Sep-13 00:00N 43°30' W 001°30'0 0.0
2017-Sep-12 22:49N 43°30' W 001°30'0 0.0
2017-Sep-12 22:30N 43°30' W 001°30'0 0.0
2017-Sep-12 22:00N 43°30' W 001°30'0 0.0
2017-Sep-12 21:30N 43°30' W 001°30'0 0.0
2017-Sep-12 21:00N 43°30' W 001°30'0 0.0
2017-Sep-12 20:30N 43°30' W 001°30'0 0.0
2017-Sep-12 20:00N 43°30' W 001°30'0 0.0
2017-Sep-12 19:30N 43°30' W 001°30'0 0.0
2017-Sep-12 19:00N 43°30' W 001°30'0 0.0
2017-Sep-12 18:30N 43°30' W 001°30'0 0.0
2017-Sep-12 18:00N 43°30' W 001°30'0 0.0
2017-Sep-12 17:30N 43°30' W 001°30'0 0.0
2017-Sep-12 17:00N 43°30' W 001°30'0 0.0
2017-Sep-12 16:30N 43°30' W 001°30'0 0.0
2017-Sep-12 15:59N 43°30' W 001°30'0 0.0
2017-Sep-12 15:30N 43°30' W 001°30'0 0.0
2017-Sep-12 15:00N 43°30' W 001°30'0 0.0
2017-Sep-12 14:30N 43°30' W 001°30'0 0.1
2017-Sep-12 14:00N 43°30' W 001°30'0 0.0
2017-Sep-12 13:30N 43°30' W 001°30'0 0.0
2017-Sep-12 13:00N 43°30' W 001°30'0 0.0
2017-Sep-12 12:29N 43°30' W 001°30'0 0.0
2017-Sep-12 12:00N 43°30' W 001°30'0 0.0
2017-Sep-12 11:30N 43°30' W 001°30'0 0.0
2017-Sep-12 11:00N 43°30' W 001°30'0 0.0
2017-Sep-12 10:30N 43°30' W 001°30'0 0.0
2017-Sep-12 10:00N 43°30' W 001°30'0 0.0
2017-Sep-12 09:30N 43°30' W 001°30'0 0.0
2017-Sep-12 09:00N 43°30' W 001°30'0 0.0
2017-Sep-12 08:30N 43°30' W 001°30'0 0.1
2017-Sep-12 08:00N 43°30' W 001°30'0 0.0
2017-Sep-12 07:30N 43°30' W 001°30'0 0.0
2017-Sep-12 06:59N 43°30' W 001°30'0 0.0
2017-Sep-12 06:30N 43°30' W 001°30'0 0.0
2017-Sep-12 06:00N 43°30' W 001°30'0 0.0
2017-Sep-12 05:30N 43°30' W 001°30'0 0.0
2017-Sep-12 05:00N 43°30' W 001°30'0 0.0
2017-Sep-12 04:30N 43°30' W 001°30'0 0.0
2017-Sep-12 04:00N 43°30' W 001°30'0 0.0
2017-Sep-12 03:30N 43°30' W 001°30'0 0.0
2017-Sep-12 03:00N 43°30' W 001°30'0 0.0
2017-Sep-12 02:30N 43°30' W 001°30'  
Track history (hours):
 
Tides and Currents Weather Stations Pressure Air Temp Water Temp Dewpoint Dewpoint Depression Visibility Wind Speed Wind Dir Waves Ship Positions

Andre Malraux

Last reported at 2017-Sep-22 02:00 UTC. Time now 2017-Oct-17 23:58 UTC.
Position N 43°02' E 004°28'.
Warning: this ship's position is 25 days out of date.

Length 35 m; draft 3 m.

Type: Ship. MMSI: 228353900.

Date/timePositionNaut miles runAvg speedWind from/ knotsBaromVisibWave heightAir tempDewpointWater temp
2017-Sep-22 02:00N 43°02' E 004°28'144 4.5
2017-Sep-20 17:50N 41°06' E 002°35'4 9.5
2017-Sep-20 17:24N 41°02' E 002°32'4 9.5
2017-Sep-20 17:00N 40°59' E 002°29'5 9.9
2017-Sep-20 16:30N 40°55' E 002°25'510.1
2017-Sep-20 16:00N 40°51' E 002°22'510.4
2017-Sep-20 15:30N 40°47' E 002°18'510.5
2017-Sep-20 15:00N 40°42' E 002°14'1010.4
2017-Sep-20 14:00N 40°34' E 002°06'510.7
2017-Sep-20 13:30N 40°29' E 002°02'510.4
2017-Sep-20 13:00N 40°25' E 001°58'510.3
2017-Sep-20 12:30N 40°21' E 001°55'510.3
2017-Sep-20 12:00N 40°17' E 001°51'510.2
2017-Sep-20 11:30N 40°12' E 001°47'510.0
2017-Sep-20 10:57N 40°08' E 001°43'4 9.8
2017-Sep-20 10:30N 40°04' E 001°40'5 9.6
2017-Sep-20 10:00N 40°00' E 001°36'5 9.4
2017-Sep-20 09:29N 39°56' E 001°33'166 9.7
2017-Sep-19 16:20N 37°39' W 000°27'18 9.3
2017-Sep-19 14:27N 37°27' W 000°44'6 9.7
2017-Sep-19 13:52N 37°26' W 000°50'228 9.6
2017-Sep-18 14:11N 36°01' W 005°14'213.3
2017-Sep-18 14:00N 36°01' W 005°17'287 8.4
2017-Sep-17 03:51N 38°55' W 010°05'410.4
2017-Sep-17 03:30N 38°59' W 010°05'510.4
2017-Sep-17 03:00N 39°04' W 010°05'510.7
2017-Sep-17 02:30N 39°09' W 010°05'347 7.5
2017-Sep-15 04:28N 43°47' W 005°26'5 9.8
2017-Sep-15 03:56N 43°47' W 005°19'4 9.6
2017-Sep-15 03:29N 43°46' W 005°13'14 9.8
2017-Sep-15 02:05N 43°45' W 004°54'210.1
2017-Sep-15 01:55N 43°45' W 004°52'66 9.7
2017-Sep-14 19:08N 43°38' W 003°21'2 9.5
2017-Sep-14 18:53N 43°38' W 003°18'4 9.4
2017-Sep-14 18:30N 43°38' W 003°13'5 9.3
2017-Sep-14 18:00N 43°38' W 003°06'5 9.2
2017-Sep-14 17:30N 43°37' W 002°60'5 9.2
2017-Sep-14 16:58N 43°37' W 002°53'6 9.1
2017-Sep-14 16:19N 43°36' W 002°45'4 9.2
2017-Sep-14 15:50N 43°36' W 002°39'3 9.2
2017-Sep-14 15:30N 43°36' W 002°35'38 9.2
2017-Sep-14 11:23N 43°32' W 001°43'4 9.1
2017-Sep-14 11:00N 43°32' W 001°38'5 9.3
2017-Sep-14 10:25N 43°32' W 001°30'1 2.9
2017-Sep-14 10:00N 43°30' W 001°30'0 0.0
2017-Sep-14 09:30N 43°30' W 001°30'0 0.0
2017-Sep-14 09:00N 43°30' W 001°30'0 0.0
2017-Sep-14 08:30N 43°30' W 001°30'0 0.0
2017-Sep-14 08:00N 43°30' W 001°30'0 0.0
2017-Sep-14 07:30N 43°30' W 001°30'0 0.0
2017-Sep-14 07:00N 43°30' W 001°30'0 0.0
2017-Sep-14 06:30N 43°30' W 001°30'0 0.0
2017-Sep-14 06:00N 43°30' W 001°30'0 0.0
2017-Sep-14 05:30N 43°30' W 001°30'0 0.0
2017-Sep-14 05:00N 43°30' W 001°30'0 0.0
2017-Sep-14 04:29N 43°30' W 001°30'0 0.0
2017-Sep-14 03:52N 43°30' W 001°30'0 0.0
2017-Sep-14 01:48N 43°30' W 001°30'0 0.0
2017-Sep-14 01:24N 43°30' W 001°30'0 0.0
2017-Sep-14 00:10N 43°30' W 001°30'0 0.0
2017-Sep-13 23:59N 43°30' W 001°30'0 0.0
2017-Sep-13 23:30N 43°30' W 001°30'0 0.0
2017-Sep-13 22:59N 43°30' W 001°30'0 0.0
2017-Sep-13 22:30N 43°30' W 001°30'0 0.0
2017-Sep-13 22:00N 43°30' W 001°30'0 0.0
2017-Sep-13 21:29N 43°30' W 001°30'0 0.0
2017-Sep-13 21:00N 43°30' W 001°30'0 0.0
2017-Sep-13 20:30N 43°30' W 001°30'0 0.0
2017-Sep-13 20:00N 43°30' W 001°30'0 0.0
2017-Sep-13 19:30N 43°30' W 001°30'0 0.0
2017-Sep-13 19:00N 43°30' W 001°30'0 0.0
2017-Sep-13 18:30N 43°30' W 001°30'0 0.0
2017-Sep-13 17:59N 43°30' W 001°30'0 0.0
2017-Sep-13 17:30N 43°30' W 001°30'0 0.0
2017-Sep-13 17:00N 43°30' W 001°30'0 0.0
2017-Sep-13 16:25N 43°30' W 001°30'0 0.0
2017-Sep-13 13:45N 43°30' W 001°30'0 0.0
2017-Sep-13 13:29N 43°30' W 001°30'0 0.0
2017-Sep-13 13:00N 43°30' W 001°30'0 0.0
2017-Sep-13 12:30N 43°30' W 001°30'0 0.0
2017-Sep-13 11:59N 43°30' W 001°30'0 0.0
2017-Sep-13 11:28N 43°30' W 001°30'0 0.0
2017-Sep-13 11:00N 43°30' W 001°30'0 0.0
2017-Sep-13 10:30N 43°30' W 001°30'0 0.0
2017-Sep-13 10:00N 43°30' W 001°30'0 0.0
2017-Sep-13 09:30N 43°30' W 001°30'0 0.0
2017-Sep-13 09:00N 43°30' W 001°30'0 0.0
2017-Sep-13 08:30N 43°30' W 001°30'0 0.0
2017-Sep-13 08:00N 43°30' W 001°30'0 0.0
2017-Sep-13 07:30N 43°30' W 001°30'0 0.0
2017-Sep-13 07:00N 43°30' W 001°30'0 0.0
2017-Sep-13 06:30N 43°30' W 001°30'0 0.0
2017-Sep-13 06:00N 43°30' W 001°30'0 0.0
2017-Sep-13 05:30N 43°30' W 001°30'0 0.0
2017-Sep-13 05:00N 43°30' W 001°30'0 0.0
2017-Sep-13 04:30N 43°30' W 001°30'0 0.0
2017-Sep-13 04:00N 43°30' W 001°30'0 0.0
2017-Sep-13 03:30N 43°30' W 001°30'0 0.0
2017-Sep-13 02:55N 43°30' W 001°30'0 0.0
2017-Sep-13 00:46N 43°30' W 001°30'0 0.0
2017-Sep-13 00:25N 43°30' W 001°30'0 0.0
2017-Sep-13 00:00N 43°30' W 001°30'0 0.0
2017-Sep-12 22:49N 43°30' W 001°30'0 0.0
2017-Sep-12 22:30N 43°30' W 001°30'0 0.0
2017-Sep-12 22:00N 43°30' W 001°30'0 0.0
2017-Sep-12 21:30N 43°30' W 001°30'0 0.0
2017-Sep-12 21:00N 43°30' W 001°30'0 0.0
2017-Sep-12 20:30N 43°30' W 001°30'0 0.0
2017-Sep-12 20:00N 43°30' W 001°30'0 0.0
2017-Sep-12 19:30N 43°30' W 001°30'0 0.0
2017-Sep-12 19:00N 43°30' W 001°30'0 0.0
2017-Sep-12 18:30N 43°30' W 001°30'0 0.0
2017-Sep-12 18:00N 43°30' W 001°30'0 0.0
2017-Sep-12 17:30N 43°30' W 001°30'0 0.0
2017-Sep-12 17:00N 43°30' W 001°30'0 0.0
2017-Sep-12 16:30N 43°30' W 001°30'0 0.0
2017-Sep-12 15:59N 43°30' W 001°30'0 0.0
2017-Sep-12 15:30N 43°30' W 001°30'0 0.0
2017-Sep-12 15:00N 43°30' W 001°30'0 0.0
2017-Sep-12 14:30N 43°30' W 001°30'0 0.1
2017-Sep-12 14:00N 43°30' W 001°30'0 0.0
2017-Sep-12 13:30N 43°30' W 001°30'0 0.0
2017-Sep-12 13:00N 43°30' W 001°30'0 0.0
2017-Sep-12 12:29N 43°30' W 001°30'0 0.0
2017-Sep-12 12:00N 43°30' W 001°30'0 0.0
2017-Sep-12 11:30N 43°30' W 001°30'0 0.0
2017-Sep-12 11:00N 43°30' W 001°30'0 0.0
2017-Sep-12 10:30N 43°30' W 001°30'0 0.0
2017-Sep-12 10:00N 43°30' W 001°30'0 0.0
2017-Sep-12 09:30N 43°30' W 001°30'0 0.0
2017-Sep-12 09:00N 43°30' W 001°30'0 0.0
2017-Sep-12 08:30N 43°30' W 001°30'0 0.1
2017-Sep-12 08:00N 43°30' W 001°30'0 0.0
2017-Sep-12 07:30N 43°30' W 001°30'0 0.0
2017-Sep-12 06:59N 43°30' W 001°30'0 0.0
2017-Sep-12 06:30N 43°30' W 001°30'0 0.0
2017-Sep-12 06:00N 43°30' W 001°30'0 0.0
2017-Sep-12 05:30N 43°30' W 001°30'0 0.0
2017-Sep-12 05:00N 43°30' W 001°30'0 0.0
2017-Sep-12 04:30N 43°30' W 001°30'0 0.0
2017-Sep-12 04:00N 43°30' W 001°30'0 0.0
2017-Sep-12 03:30N 43°30' W 001°30'0 0.0
2017-Sep-12 03:00N 43°30' W 001°30'0 0.0
2017-Sep-12 02:30N 43°30' W 001°30'  

Dump ship's entire track history